Time;durP1;ratioP1;P1;durP2;ratioP2;P2;SDS_P1;SDS_P2;PMS_P1;PMS_P2;Temp;Humidity;BMP_temperature;BMP_pressure;BME280_temperature;BME280_humidity;BME280_pressure;Samples;Min_cycle;Max_cycle;Signal;HPM_P1;HPM_P2
2022/07/31 00:00:05;;;;;;;;;;;;;;;19.80;100.00;147703.34;5054387;28;20273;-83
2022/07/31 00:02:49;;;;;;;;;;;;;;;19.85;100.00;147714.88;5054175;28;19916;-83
2022/07/31 00:05:15;;;;;;;;;;;;;;;19.83;100.00;147711.03;5053983;28;19927;-84
2022/07/31 00:07:40;;;;;;;;;;;;;;;19.92;100.00;147732.84;5054005;28;19916;-84
2022/07/31 00:10:05;;;;;;;;;;;;;;;19.83;100.00;147709.78;5052549;28;19919;-84
2022/07/31 00:12:31;;;;;;;;;;;;;;;19.72;100.00;147682.84;5054312;28;19917;-84
2022/07/31 00:14:56;;;;;;;;;;;;;;;19.68;100.00;147673.84;5052984;28;20381;-79
2022/07/31 00:17:21;;;;;;;;;;;;;;;19.75;100.00;147690.53;5054485;28;19912;-78
2022/07/31 00:19:46;;;;;;;;;;;;;;;19.83;100.00;147711.03;5053624;28;19999;-79
2022/07/31 00:22:12;;;;;;;;;;;;;;;19.84;100.00;147713.63;5054269;28;19917;-78
2022/07/31 00:24:38;;;;;;;;;;;;;;;19.86;100.00;147717.47;5055067;28;19917;-83
2022/07/31 00:27:04;;;;;;;;;;;;;;;19.83;100.00;147709.78;5054549;28;20002;-84
2022/07/31 00:29:29;;;;;;;;;;;;;;;19.65;100.00;147664.91;5054171;28;20425;-82
2022/07/31 00:31:55;;;;;;;;;;;;;;;19.75;100.00;147690.53;5052261;28;19921;-79
2022/07/31 00:34:21;;;;;;;;;;;;;;;19.63;100.00;147661.06;5051392;28;19917;-76
2022/07/31 00:36:46;;;;;;;;;;;;;;;19.67;100.00;147670.00;5054215;28;19920;-76
2022/07/31 00:39:11;;;;;;;;;;;;;;;19.74;100.00;147687.94;5086377;28;19999;-79
2022/07/31 00:41:41;;;;;;;;;;;;;;;19.77;100.00;147695.69;5052996;28;20402;-77
2022/07/31 00:44:11;;;;;;;;;;;;;;;19.75;100.00;147690.53;5052393;28;19973;-77
2022/07/31 00:46:37;;;;;;;;;;;;;;;19.70;100.00;147677.69;5052558;28;19921;-77
2022/07/31 00:49:03;;;;;;;;;;;;;;;19.73;100.00;147685.38;5053057;28;19969;-77
2022/07/31 00:51:28;;;;;;;;;;;;;;;19.62;100.00;147657.22;5053736;28;19916;-76
2022/07/31 00:53:54;;;;;;;;;;;;;;;19.59;100.00;147649.53;5053377;28;20331;-78
2022/07/31 00:56:19;;;;;;;;;;;;;;;19.61;100.00;132815.53;5052277;28;20354;-75
2022/07/31 00:58:45;;;;;;;;;;;;;;;19.63;100.00;111511.53;5053758;28;20013;-76
2022/07/31 01:01:10;;;;;;;;;;;;;;;19.66;100.00;92705.63;5053240;28;20009;-76
2022/07/31 01:03:35;;;;;;;;;;;;;;;19.74;100.00;77730.91;5052040;28;20557;-77
2022/07/31 01:06:02;;;;;;;;;;;;;;;19.81;100.00;60436.31;5085911;28;19917;-76
2022/07/31 01:08:27;;;;;;;;;;;;;;;19.77;100.00;39497.53;5051794;28;19921;-79
2022/07/31 01:11:03;;;;;;;;;;;;;;;19.75;100.00;27391.84;5053301;28;19970;-77
2022/07/31 01:13:34;;;;;;;;;;;;;;;19.72;100.00;14989.31;5052505;28;19940;-77
2022/07/31 01:16:01;;;;;;;;;;;;;;;19.65;100.00;4962.13;5052799;28;19917;-77
2022/07/31 01:18:28;;;;;;;;;;;;;;;19.47;100.00;-3040.19;5051759;28;19964;-77
2022/07/31 01:20:56;;;;;;;;;;;;;;;19.56;100.00;-9693.41;5051946;28;19948;-76
2022/07/31 01:23:39;;;;;;;;;;;;;;;19.53;100.00;-13015.78;5051888;28;19917;-76
2022/07/31 01:26:17;;;;;;;;;;;;;;;19.51;100.00;-16003.31;5053110;28;19917;-76
2022/07/31 01:29:00;;;;;;;;;;;;;;;19.59;100.00;-18658.31;5051750;28;19917;-79
2022/07/31 01:31:35;;;;;;;;;;;;;;;19.57;100.00;-19652.72;5085529;28;19983;-77
2022/07/31 01:34:15;;;;;;;;;;;;;;;19.51;100.00;-20646.09;5051779;28;19970;-78
2022/07/31 01:36:43;;;;;;;;;;;;;;;19.50;100.00;-21971.44;5052040;28;20011;-77
2022/07/31 01:39:08;;;;;;;;;;;;;;;19.55;100.00;-21972.50;5084970;28;19920;-76
2022/07/31 01:41:37;;;;;;;;;;;;;;;19.56;100.00;-21972.72;5052147;28;20617;-77
2022/07/31 01:44:06;;;;;;;;;;;;;;;19.55;100.00;-21972.59;5052945;28;19917;-77
2022/07/31 01:46:33;;;;;;;;;;;;;;;19.56;100.00;-21972.72;5053057;28;19917;-77
2022/07/31 01:48:59;;;;;;;;;;;;;;;19.55;100.00;-22303.81;5052855;28;19917;-78
2022/07/31 01:51:26;;;;;;;;;;;;;;;19.45;100.00;-22964.03;5054305;28;19982;-79
2022/07/31 01:53:53;;;;;;;;;;;;;;;19.39;100.00;-22962.56;5050839;28;19917;-80
2022/07/31 01:56:19;;;;;;;;;;;;;;;19.35;100.00;-23623.94;5051865;28;20350;-79
2022/07/31 01:58:45;;;;;;;;;;;;;;;19.25;100.00;-25276.19;5052040;28;19939;-77
2022/07/31 02:01:12;;;;;;;;;;;;;;;19.21;100.00;-25607.69;5050446;28;20378;-78
2022/07/31 02:03:43;;;;;;;;;;;;;;;19.25;100.00;-25608.84;5050846;28;19920;-76
2022/07/31 02:06:08;;;;;;;;;;;;;;;19.15;100.00;-25606.09;5050460;28;19923;-77
2022/07/31 02:08:34;;;;;;;;;;;;;;;19.17;100.00;-25606.84;5050392;28;19917;-78
2022/07/31 02:11:00;;;;;;;;;;;;;;;19.12;100.00;-25605.38;5049953;28;19919;-77
2022/07/31 02:13:27;;;;;;;;;;;;;;;19.22;100.00;-25608.13;5049539;28;19917;-76
2022/07/31 02:15:54;;;;;;;;;;;;;;;19.13;100.00;-25605.66;5051572;28;19963;-77
2022/07/31 02:18:20;;;;;;;;;;;;;;;19.13;100.00;-25605.66;5062893;28;19917;-77
2022/07/31 02:20:48;;;;;;;;;;;;;;;19.18;100.00;-25606.97;5076806;28;19964;-77
2022/07/31 02:23:14;;;;;;;;;;;;;;;19.22;100.00;-25607.97;5074963;28;19920;-76
2022/07/31 02:25:40;;;;;;;;;;;;;;;19.23;100.00;-25608.41;5092323;28;19972;-77
2022/07/31 02:28:10;;;;;;;;;;;;;;;19.34;100.00;-25611.59;5074822;28;19917;-77
2022/07/31 02:30:37;;;;;;;;;;;;;;;19.29;100.00;-25610.16;5076662;28;19920;-77
2022/07/31 02:33:09;;;;;;;;;;;;;;;19.37;100.00;-25612.47;5074644;28;19973;-78
2022/07/31 02:35:35;;;;;;;;;;;;;;;19.35;100.00;-25611.75;5109026;28;20444;-78
2022/07/31 02:38:01;;;;;;;;;;;;;;;19.27;100.00;-25609.56;5074880;28;19962;-78
2022/07/31 02:40:27;;;;;;;;;;;;;;;19.31;100.00;-25610.72;5075861;28;19923;-77
2022/07/31 02:42:57;;;;;;;;;;;;;;;19.26;100.00;-25609.28;5108799;28;19916;-78
2022/07/31 02:45:23;;;;;;;;;;;;;;;19.25;100.00;-25608.84;5079444;28;19950;-77
2022/07/31 02:47:48;;;;;;;;;;;;;;;19.16;100.00;-25606.41;5075153;28;20364;-81
2022/07/31 02:50:15;;;;;;;;;;;;;;;19.18;100.00;-25607.13;5080765;28;19924;-81
2022/07/31 02:52:41;;;;;;;;;;;;;;;19.23;100.00;-25608.28;5096501;28;20385;-83
2022/07/31 02:55:07;;;;;;;;;;;;;;;19.18;100.00;-25607.13;5095385;28;20005;-83
2022/07/31 02:57:32;;;;;;;;;;;;;;;19.13;100.00;-25605.66;5096787;28;19916;-80
2022/07/31 02:59:57;;;;;;;;;;;;;;;19.13;100.00;-25605.66;5095769;28;19929;-78
2022/07/31 03:02:22;;;;;;;;;;;;;;;19.10;100.00;-25604.66;5079098;28;19924;-76
2022/07/31 03:04:48;;;;;;;;;;;;;;;19.11;100.00;-25604.94;5101513;28;19921;-75
2022/07/31 03:07:16;;;;;;;;;;;;;;;19.19;100.00;-25607.25;5094453;28;19931;-77
2022/07/31 03:09:41;;;;;;;;;;;;;;;19.13;100.00;-25605.53;5094732;28;19959;-76
2022/07/31 03:12:06;;;;;;;;;;;;;;;19.13;100.00;-25605.66;5091231;28;19960;-77
2022/07/31 03:14:34;;;;;;;;;;;;;;;19.01;100.00;-25602.34;5075379;28;19916;-77
2022/07/31 03:17:00;;;;;;;;;;;;;;;19.05;100.00;-25603.22;5093814;28;19981;-76
2022/07/31 03:19:27;;;;;;;;;;;;;;;19.07;100.00;-25603.94;5094595;28;20360;-75
2022/07/31 03:21:52;;;;;;;;;;;;;;;19.00;100.00;-25602.06;5084179;28;20028;-76
2022/07/31 03:24:24;;;;;;;;;;;;;;;19.00;100.00;-25602.06;5076984;28;20372;-76
2022/07/31 03:26:50;;;;;;;;;;;;;;;19.05;100.00;-25603.22;5074061;28;19955;-76
2022/07/31 03:29:15;;;;;;;;;;;;;;;19.12;100.00;-25605.25;5074543;28;19956;-79
2022/07/31 03:31:40;;;;;;;;;;;;;;;18.98;100.00;-25601.47;5073558;28;19927;-76
2022/07/31 03:34:07;;;;;;;;;;;;;;;18.91;100.00;-25599.47;5074234;28;19916;-77
2022/07/31 03:36:33;;;;;;;;;;;;;;;18.94;100.00;-25600.19;5104794;28;19920;-78
2022/07/31 03:38:58;;;;;;;;;;;;;;;18.93;100.00;-25599.91;5084761;28;19924;-78
2022/07/31 03:41:23;;;;;;;;;;;;;;;18.91;100.00;-25599.47;5094231;28;19920;-78
2022/07/31 03:43:55;;;;;;;;;;;;;;;18.96;100.00;-25600.91;5094843;28;19919;-79
2022/07/31 03:46:21;;;;;;;;;;;;;;;18.92;100.00;-25599.75;5094115;28;20287;-77
2022/07/31 03:48:50;;;;;;;;;;;;;;;18.96;100.00;-25600.75;5094008;28;19920;-76
2022/07/31 03:51:16;;;;;;;;;;;;;;;18.93;100.00;-25599.91;5088792;28;19916;-75
2022/07/31 03:53:47;;;;;;;;;;;;;;;18.94;100.00;-25600.31;5081648;28;19924;-78
2022/07/31 03:56:14;;;;;;;;;;;;;;;18.93;100.00;-25599.91;5074042;28;19916;-77
2022/07/31 03:58:39;;;;;;;;;;;;;;;18.92;100.00;-25599.75;5073527;28;19959;-76
2022/07/31 04:01:05;;;;;;;;;;;;;;;18.82;100.00;-25597.00;5083175;28;20403;-81
2022/07/31 04:03:42;;;;;;;;;;;;;;;18.91;100.00;-25599.47;5094151;28;20437;-81
2022/07/31 04:06:07;;;;;;;;;;;;;;;18.95;100.00;-25600.63;5093705;28;19966;-78
2022/07/31 04:08:33;;;;;;;;;;;;;;;18.78;100.00;-25595.84;5095122;28;20388;-77
2022/07/31 04:10:58;;;;;;;;;;;;;;;18.71;100.00;-25593.81;5093131;28;19981;-78
2022/07/31 04:13:23;;;;;;;;;;;;;;;18.75;100.00;-25594.97;5093439;28;19963;-81
2022/07/31 04:15:49;;;;;;;;;;;;;;;18.78;100.00;-25595.84;5085036;28;20023;-76
2022/07/31 04:18:14;;;;;;;;;;;;;;;18.74;100.00;-25594.53;5072779;28;19960;-76
2022/07/31 04:20:39;;;;;;;;;;;;;;;18.77;100.00;-25595.41;5089805;28;19920;-77
2022/07/31 04:23:09;;;;;;;;;;;;;;;18.76;100.00;-25595.13;5072709;28;19916;-77
2022/07/31 04:25:34;;;;;;;;;;;;;;;18.77;100.00;-25595.56;5079211;28;19916;-77
2022/07/31 04:28:00;;;;;;;;;;;;;;;18.73;100.00;-25594.25;5080322;28;19943;-77
2022/07/31 04:30:25;;;;;;;;;;;;;;;18.76;100.00;-25595.13;5086820;28;20007;-78
2022/07/31 04:32:51;;;;;;;;;;;;;;;18.71;100.00;-25593.69;5072646;28;19970;-77
2022/07/31 04:35:16;;;;;;;;;;;;;;;18.66;100.00;-25592.38;5077186;28;20003;-77
2022/07/31 04:37:41;;;;;;;;;;;;;;;18.63;100.00;-25591.66;5093163;28;20305;-77
2022/07/31 04:40:09;;;;;;;;;;;;;;;18.72;100.00;-25594.09;5089958;28;20407;-77
2022/07/31 04:42:37;;;;;;;;;;;;;;;18.70;100.00;-25593.38;5071819;28;19920;-77
2022/07/31 04:45:02;;;;;;;;;;;;;;;18.71;100.00;-25593.81;5091563;28;19982;-79
2022/07/31 04:47:27;;;;;;;;;;;;;;;18.71;100.00;-25593.69;5093447;28;19916;-82
2022/07/31 04:49:52;;;;;;;;;;;;;;;18.79;100.00;-25596.00;5094344;28;19919;-84
2022/07/31 04:52:18;;;;;;;;;;;;;;;18.84;100.00;-25597.44;5093213;28;19932;-80
2022/07/31 04:54:43;;;;;;;;;;;;;;;18.80;100.00;-25596.28;5092824;28;19912;-83
2022/07/31 04:57:08;;;;;;;;;;;;;;;18.86;100.00;-25598.00;5084786;28;19917;-80
2022/07/31 04:59:34;;;;;;;;;;;;;;;18.87;100.00;-25598.31;5083919;28;19916;-78
2022/07/31 05:01:59;;;;;;;;;;;;;;;18.83;100.00;-25597.28;5078142;28;20012;-79
2022/07/31 05:04:25;;;;;;;;;;;;;;;18.80;100.00;-25596.28;5106170;28;19916;-77
2022/07/31 05:06:51;;;;;;;;;;;;;;;18.81;100.00;-25596.56;5078542;28;19959;-78
2022/07/31 05:09:17;;;;;;;;;;;;;;;18.94;100.00;-25600.19;5092472;28;19950;-79
2022/07/31 05:11:43;;;;;;;;;;;;;;;18.87;100.00;-25598.31;5092794;28;19994;-82
2022/07/31 05:14:10;;;;;;;;;;;;;;;18.93;100.00;-25599.91;5080588;28;19971;-83
2022/07/31 05:16:36;;;;;;;;;;;;;;;18.90;100.00;-25599.03;5091007;28;19916;-83
2022/07/31 05:19:02;;;;;;;;;;;;;;;18.81;100.00;-25596.72;5077921;28;20360;-82
2022/07/31 05:21:29;;;;;;;;;;;;;;;18.93;100.00;-25599.91;5094472;28;20018;-83
2022/07/31 05:23:57;;;;;;;;;;;;;;;18.81;100.00;-25596.72;5094773;28;19924;-83
2022/07/31 05:26:22;;;;;;;;;;;;;;;18.88;100.00;-25598.44;5082955;28;19921;-82
2022/07/31 05:28:51;;;;;;;;;;;;;;;18.98;100.00;-25601.47;5087291;28;20249;-83
2022/07/31 05:31:17;;;;;;;;;;;;;;;18.98;100.00;-25601.34;5105579;28;19931;-81
2022/07/31 05:33:44;;;;;;;;;;;;;;;19.01;100.00;-25602.22;5095682;28;19920;-82
2022/07/31 05:36:10;;;;;;;;;;;;;;;18.97;100.00;-25601.19;5083383;28;19917;-81
2022/07/31 05:38:35;;;;;;;;;;;;;;;18.96;100.00;-25600.91;5090673;28;19917;-81
2022/07/31 05:41:01;;;;;;;;;;;;;;;18.89;100.00;-25598.88;5116742;28;19980;-80
2022/07/31 05:43:26;;;;;;;;;;;;;;;18.93;100.00;-25600.03;5091143;28;19904;-82
2022/07/31 05:45:52;;;;;;;;;;;;;;;18.97;100.00;-25601.03;5097544;28;19987;-82
2022/07/31 05:48:17;;;;;;;;;;;;;;;19.09;100.00;-25604.38;5092622;28;19924;-81
2022/07/31 05:50:46;;;;;;;;;;;;;;;19.07;100.00;-25603.94;5090469;28;19912;-82
2022/07/31 05:53:20;;;;;;;;;;;;;;;19.12;100.00;-25605.25;5086594;28;19924;-81
2022/07/31 05:55:48;;;;;;;;;;;;;;;19.09;100.00;-25604.38;5097882;28;20008;-82
2022/07/31 05:58:14;;;;;;;;;;;;;;;19.22;100.00;-25607.97;5067341;28;19913;-82
2022/07/31 06:00:39;;;;;;;;;;;;;;;19.28;100.00;-25609.72;5067328;28;20027;-80
2022/07/31 06:03:11;;;;;;;;;;;;;;;19.32;100.00;-25611.00;5106129;28;19913;-81
2022/07/31 06:05:37;;;;;;;;;;;;;;;19.35;100.00;-25611.88;5094279;28;19908;-80
2022/07/31 06:08:03;;;;;;;;;;;;;;;19.31;100.00;-25610.72;5101688;28;19975;-82
2022/07/31 06:10:29;;;;;;;;;;;;;;;19.34;100.00;-25611.44;5104004;28;20364;-82
2022/07/31 06:12:55;;;;;;;;;;;;;;;19.33;100.00;-25611.16;5107354;28;19916;-79
2022/07/31 06:15:20;;;;;;;;;;;;;;;19.27;100.00;-25609.56;5108059;28;19938;-80
2022/07/31 06:17:46;;;;;;;;;;;;;;;19.33;100.00;-25611.31;5111300;28;20284;-81
2022/07/31 06:20:12;;;;;;;;;;;;;;;19.35;100.00;-25611.88;5094573;28;19917;-80
2022/07/31 06:22:39;;;;;;;;;;;;;;;19.30;100.00;-25610.28;5104484;28;19923;-80
2022/07/31 06:25:08;;;;;;;;;;;;;;;19.24;100.00;-25608.72;5088670;28;19916;-82
2022/07/31 06:27:33;;;;;;;;;;;;;;;19.31;100.00;-25610.72;5086424;28;19917;-81
2022/07/31 06:29:59;;;;;;;;;;;;;;;19.43;100.00;-25613.91;5092594;28;19961;-81
2022/07/31 06:32:27;;;;;;;;;;;;;;;19.45;100.00;-25614.47;5089361;28;19959;-81
2022/07/31 06:34:52;;;;;;;;;;;;;;;19.48;100.00;-25615.50;5105101;28;19951;-82
2022/07/31 06:37:18;;;;;;;;;;;;;;;19.53;100.00;-25616.94;5087283;28;19924;-82
2022/07/31 06:39:44;;;;;;;;;;;;;;;19.50;100.00;-25616.06;5089595;28;19956;-81
2022/07/31 06:42:09;;;;;;;;;;;;;;;19.56;100.00;-25617.66;5089111;28;19904;-81
2022/07/31 06:44:34;;;;;;;;;;;;;;;19.59;100.00;-25618.53;5088708;28;19917;-81
2022/07/31 06:47:00;;;;;;;;;;;;;;;19.52;100.00;-25616.50;5086406;28;19924;-81
2022/07/31 06:49:25;;;;;;;;;;;;;;;19.68;100.00;-25620.97;5112065;28;20317;-82
2022/07/31 06:51:50;;;;;;;;;;;;;;;19.67;100.00;-25620.69;5116445;28;19912;-82
2022/07/31 06:54:17;;;;;;;;;;;;;;;19.73;100.00;-25622.56;5093612;28;19920;-80
2022/07/31 06:56:42;;;;;;;;;;;;;;;19.80;100.00;-25624.44;5084914;28;19913;-82
2022/07/31 06:59:07;;;;;;;;;;;;;;;19.79;100.00;-25624.16;5085955;28;19916;-81
2022/07/31 07:01:33;;;;;;;;;;;;;;;19.86;100.00;-25626.19;5099081;28;19939;-82
2022/07/31 07:03:58;;;;;;;;;;;;;;;19.97;100.00;-25629.22;5083250;28;20015;-82
2022/07/31 07:06:24;;;;;;;;;;;;;;;19.97;100.00;-25629.22;5078567;28;19952;-79
2022/07/31 07:08:49;;;;;;;;;;;;;;;19.99;100.00;-25629.78;5082477;28;19917;-82
2022/07/31 07:11:17;;;;;;;;;;;;;;;19.94;100.00;-25628.34;5080014;28;20376;-80
2022/07/31 07:13:43;;;;;;;;;;;;;;;19.94;100.00;-25628.19;5082512;28;19918;-81
2022/07/31 07:16:09;;;;;;;;;;;;;;;19.98;100.00;-25629.50;5082858;28;19970;-81
2022/07/31 07:18:34;;;;;;;;;;;;;;;20.02;100.00;-25630.66;5083769;28;19923;-80
2022/07/31 07:20:59;;;;;;;;;;;;;;;20.00;100.00;-25630.06;5082231;28;20434;-82
2022/07/31 07:23:25;;;;;;;;;;;;;;;20.03;100.00;-25630.94;5085118;28;19917;-81
2022/07/31 07:25:52;;;;;;;;;;;;;;;20.06;100.00;-25631.81;5082105;28;20467;-81
2022/07/31 07:28:17;;;;;;;;;;;;;;;19.94;100.00;-25628.34;5082529;28;19963;-79
2022/07/31 07:30:42;;;;;;;;;;;;;;;19.90;100.00;-25627.19;5101484;28;20044;-82
2022/07/31 07:33:15;;;;;;;;;;;;;;;19.93;100.00;-25627.91;5097945;28;20038;-82
2022/07/31 07:35:40;;;;;;;;;;;;;;;19.97;100.00;-25629.22;5079469;28;20003;-82
2022/07/31 07:38:06;;;;;;;;;;;;;;;19.96;100.00;-25628.91;5077667;28;19952;-80
2022/07/31 07:40:32;;;;;;;;;;;;;;;20.09;100.00;-25632.53;5075220;28;20371;-81
2022/07/31 07:42:59;;;;;;;;;;;;;;;20.08;100.00;-25632.22;5079950;28;19963;-82
2022/07/31 07:45:24;;;;;;;;;;;;;;;19.91;100.00;-25627.63;5094675;28;19939;-81
2022/07/31 07:47:49;;;;;;;;;;;;;;;19.92;100.00;-25627.75;5085805;28;20393;-80
2022/07/31 07:50:15;;;;;;;;;;;;;;;19.92;100.00;-25627.75;5093190;28;19960;-82
2022/07/31 07:52:41;;;;;;;;;;;;;;;19.94;100.00;-25628.34;5084294;28;19935;-81
2022/07/31 07:55:07;;;;;;;;;;;;;;;19.81;100.00;-25624.59;5084518;28;20007;-82
2022/07/31 07:57:33;;;;;;;;;;;;;;;19.87;100.00;-25626.47;5073524;28;20011;-80
2022/07/31 07:59:59;;;;;;;;;;;;;;;19.89;100.00;-25627.03;5072665;28;19970;-79
2022/07/31 08:02:24;;;;;;;;;;;;;;;19.92;100.00;-25627.75;5073434;28;19923;-81
2022/07/31 08:04:49;;;;;;;;;;;;;;;20.06;100.00;-25631.81;5074494;28;20145;-81
2022/07/31 08:07:15;;;;;;;;;;;;;;;19.90;100.00;-25627.19;5073421;28;19958;-80
2022/07/31 08:09:40;;;;;;;;;;;;;;;19.85;100.00;-25625.75;5073112;28;19920;-80
2022/07/31 08:12:05;;;;;;;;;;;;;;;19.95;100.00;-25628.63;5072087;28;19917;-79
2022/07/31 08:14:32;;;;;;;;;;;;;;;20.01;100.00;-25630.34;5106773;28;20361;-78
2022/07/31 08:16:57;;;;;;;;;;;;;;;20.01;100.00;-25630.34;5072542;28;20343;-80
2022/07/31 08:19:23;;;;;;;;;;;;;;;19.96;100.00;-25628.91;5086940;28;19971;-82
2022/07/31 08:21:48;;;;;;;;;;;;;;;20.08;100.00;-25632.22;5093849;28;19924;-81
2022/07/31 08:24:23;;;;;;;;;;;;;;;20.25;100.00;-25637.00;5093377;28;20804;-81
2022/07/31 08:29:33;;;;;;;;;;;;;;;20.41;100.00;-25641.59;5083188;28;19927;-79
2022/07/31 08:31:58;;;;;;;;;;;;;;;20.56;100.00;-25645.78;5072102;28;19920;-82
2022/07/31 08:34:29;;;;;;;;;;;;;;;20.62;100.00;-25647.38;5073118;28;20015;-83
2022/07/31 08:36:54;;;;;;;;;;;;;;;20.71;100.00;-25649.81;5073003;28;19923;-79
2022/07/31 08:39:19;;;;;;;;;;;;;;;20.50;100.00;-25643.91;5076528;28;19920;-81
2022/07/31 08:41:45;;;;;;;;;;;;;;;20.68;100.00;-25649.09;5074341;28;19944;-81
2022/07/31 08:44:12;;;;;;;;;;;;;;;20.80;100.00;-25652.41;5073679;28;20233;-80
2022/07/31 08:46:38;;;;;;;;;;;;;;;20.90;100.00;-25655.16;5073837;28;19917;-80
2022/07/31 08:49:05;;;;;;;;;;;;;;;20.92;100.00;-25655.88;5071964;28;20514;-80
2022/07/31 08:51:33;;;;;;;;;;;;;;;20.89;100.00;-25655.00;5073184;28;19916;-81
2022/07/31 08:54:12;;;;;;;;;;;;;;;20.91;100.00;-25655.44;5077189;28;19920;-81
2022/07/31 08:56:37;;;;;;;;;;;;;;;20.98;100.00;-25657.44;5078051;28;19956;-80
2022/07/31 08:59:03;;;;;;;;;;;;;;;20.80;100.00;-25652.56;5076635;28;19917;-80
2022/07/31 09:01:29;;;;;;;;;;;;;;;20.80;100.00;-25652.56;5072762;28;19917;-79
2022/07/31 09:03:55;;;;;;;;;;;;;;;21.00;100.00;-25658.03;5073413;28;19925;-80
2022/07/31 09:06:21;;;;;;;;;;;;;;;20.92;100.00;-25655.72;5072683;28;19916;-80
2022/07/31 09:08:47;;;;;;;;;;;;;;;20.86;100.00;-25654.00;5075893;28;19981;-80
2022/07/31 09:11:13;;;;;;;;;;;;;;;20.79;100.00;-25652.28;5073928;28;19921;-79
2022/07/31 09:13:57;;;;;;;;;;;;;;;20.88;100.00;-25654.72;5091644;28;19931;-80
2022/07/31 09:16:23;;;;;;;;;;;;;;;21.10;100.00;-25660.75;5077770;28;19920;-79
2022/07/31 09:18:55;;;;;;;;;;;;;;;21.45;100.00;-25670.69;5072582;28;20016;-80
2022/07/31 09:21:21;;;;;;;;;;;;;;;21.36;100.00;-25667.94;5072193;28;19913;-79
2022/07/31 09:23:46;;;;;;;;;;;;;;;21.42;100.00;-25669.81;5071115;28;19924;-80
2022/07/31 09:26:11;;;;;;;;;;;;;;;21.36;100.00;-25667.94;5070766;28;19958;-80
2022/07/31 09:28:38;;;;;;;;;;;;;;;21.24;100.00;-25664.78;5070886;28;19921;-79
2022/07/31 09:31:04;;;;;;;;;;;;;;;21.09;100.00;-25660.47;5071647;28;20357;-79
2022/07/31 09:33:31;;;;;;;;;;;;;;;20.85;100.00;-25653.84;5072858;28;20391;-76
2022/07/31 09:35:57;;;;;;;;;;;;;;;20.88;100.00;-25654.72;5071416;28;19998;-78
2022/07/31 09:38:29;;;;;;;;;;;;;;;20.80;100.00;-25652.56;5072474;28;20369;-77
2022/07/31 09:40:54;;;;;;;;;;;;;;;20.64;100.00;-25647.94;5072761;28;20012;-79
2022/07/31 09:43:23;;;;;;;;;;;;;;;20.73;100.00;-25650.53;5082486;28;20299;-78
2022/07/31 09:45:58;;;;;;;;;;;;;;;20.41;100.00;-25641.59;5092122;28;19920;-78
2022/07/31 09:48:23;;;;;;;;;;;;;;;20.30;100.00;-25638.44;5070280;28;19920;-79
2022/07/31 09:50:53;;;;;;;;;;;;;;;20.28;100.00;-25637.84;5072517;28;20144;-80
2022/07/31 09:53:25;;;;;;;;;;;;;;;20.11;100.00;-25633.09;5061838;28;20253;-81
2022/07/31 09:55:50;;;;;;;;;;;;;;;20.15;100.00;-25634.09;5072102;28;19920;-80
2022/07/31 09:58:15;;;;;;;;;;;;;;;20.18;100.00;-25634.97;5070139;28;19920;-80
2022/07/31 10:00:41;;;;;;;;;;;;;;;20.12;100.00;-25633.25;5070951;28;19931;-81
2022/07/31 10:03:07;;;;;;;;;;;;;;;20.03;100.00;-25630.78;5069494;28;19954;-81
2022/07/31 10:05:34;;;;;;;;;;;;;;;20.10;100.00;-25632.81;5071264;28;19917;-82
2022/07/31 10:07:59;;;;;;;;;;;;;;;20.18;100.00;-25635.13;5090926;28;20280;-83
2022/07/31 10:10:24;;;;;;;;;;;;;;;20.19;100.00;-25635.41;5075460;28;20040;-82
2022/07/31 10:12:51;;;;;;;;;;;;;;;20.05;100.00;-25631.38;5070291;28;19916;-84
2022/07/31 10:15:19;;;;;;;;;;;;;;;20.09;100.00;-25632.66;5070673;28;20237;-83
2022/07/31 10:17:46;;;;;;;;;;;;;;;20.14;100.00;-25633.81;5069608;28;19938;-83
2022/07/31 10:20:16;;;;;;;;;;;;;;;20.15;100.00;-25634.09;5071071;28;20395;-83
2022/07/31 10:22:43;;;;;;;;;;;;;;;20.11;100.00;-25633.09;5070498;28;19916;-81
2022/07/31 10:25:11;;;;;;;;;;;;;;;20.14;100.00;-25633.81;5071107;28;19995;-81
2022/07/31 10:27:37;;;;;;;;;;;;;;;20.17;100.00;-25634.69;5075120;28;19966;-80
2022/07/31 10:30:05;;;;;;;;;;;;;;;20.05;100.00;-25631.50;5071098;28;20320;-80
2022/07/31 10:32:33;;;;;;;;;;;;;;;20.02;100.00;-25630.66;5070366;28;19924;-82
2022/07/31 10:34:58;;;;;;;;;;;;;;;20.04;100.00;-25631.06;5070921;28;20398;-79
2022/07/31 10:37:31;;;;;;;;;;;;;;;20.03;100.00;-25630.94;5104293;28;19930;-80
2022/07/31 10:40:07;;;;;;;;;;;;;;;20.04;100.00;-25631.22;5070902;28;19970;-80
2022/07/31 10:42:47;;;;;;;;;;;;;;;19.87;100.00;-25626.31;5075064;28;19921;-79
2022/07/31 10:45:13;;;;;;;;;;;;;;;19.88;100.00;-25626.59;5073628;28;19920;-80
2022/07/31 10:47:38;;;;;;;;;;;;;;;19.93;100.00;-25628.06;5108404;28;19917;-79
2022/07/31 10:50:04;;;;;;;;;;;;;;;19.89;100.00;-25626.91;5108559;28;19923;-80
2022/07/31 10:52:31;;;;;;;;;;;;;;;19.90;100.00;-25627.19;5108316;28;19916;-81
2022/07/31 10:55:00;;;;;;;;;;;;;;;19.95;100.00;-25628.47;5074410;28;20401;-80
2022/07/31 10:57:33;;;;;;;;;;;;;;;19.97;100.00;-25629.22;5108580;28;19917;-80
2022/07/31 11:00:10;;;;;;;;;;;;;;;20.22;100.00;-25636.13;5108379;28;19974;-81
2022/07/31 11:02:36;;;;;;;;;;;;;;;20.43;100.00;-25642.19;5075933;28;19920;-80
2022/07/31 11:05:22;;;;;;;;;;;;;;;20.51;100.00;-25644.34;5108191;28;19916;-80
2022/07/31 11:07:58;;;;;;;;;;;;;;;20.58;100.00;-25646.34;5108393;28;19978;-80
2022/07/31 11:10:23;;;;;;;;;;;;;;;20.66;100.00;-25648.53;5076879;28;19920;-81
2022/07/31 11:13:09;;;;;;;;;;;;;;;20.74;100.00;-25650.69;5075083;28;20281;-82
2022/07/31 11:15:36;;;;;;;;;;;;;;;20.88;100.00;-25654.72;5074861;28;19966;-79
2022/07/31 11:18:14;;;;;;;;;;;;;;;20.92;100.00;-25655.72;5074115;28;19917;-80
2022/07/31 11:20:45;;;;;;;;;;;;;;;20.90;100.00;-25655.16;5070482;28;19923;-80
2022/07/31 11:23:16;;;;;;;;;;;;;;;21.00;100.00;-25657.88;5076073;28;19916;-80
2022/07/31 11:25:43;;;;;;;;;;;;;;;21.02;100.00;-25658.59;5077052;28;19916;-79
2022/07/31 11:28:12;;;;;;;;;;;;;;;21.06;100.00;-25659.59;5074083;28;20395;-81
2022/07/31 11:30:53;;;;;;;;;;;;;;;21.42;100.00;-25669.81;5070825;28;20023;-79
2022/07/31 11:33:29;;;;;;;;;;;;;;;21.90;100.00;-25683.06;5073303;28;19924;-81
2022/07/31 11:35:56;;;;;;;;;;;;;;;21.88;100.00;-25682.75;5073633;28;19912;-77
2022/07/31 11:38:27;;;;;;;;;;;;;;;21.77;100.00;-25679.47;5073774;28;19920;-79
2022/07/31 11:40:53;;;;;;;;;;;;;;;21.66;100.00;-25676.44;5075036;28;19942;-78
2022/07/31 11:43:19;;;;;;;;;;;;;;;21.68;100.00;-25677.16;5073665;28;19970;-79
2022/07/31 11:45:45;;;;;;;;;;;;;;;21.67;100.00;-25676.72;5073912;28;20294;-81
2022/07/31 11:48:13;;;;;;;;;;;;;;;21.49;100.00;-25671.69;5072565;28;19935;-79
2022/07/31 11:50:39;;;;;;;;;;;;;;;21.43;100.00;-25669.97;5073723;28;19912;-79
2022/07/31 11:53:05;;;;;;;;;;;;;;;21.21;100.00;-25663.78;5072081;28;19917;-78
2022/07/31 11:55:31;;;;;;;;;;;;;;;21.24;100.00;-25664.63;5072607;28;20136;-79
2022/07/31 11:57:56;;;;;;;;;;;;;;;21.18;100.00;-25663.06;5072657;28;19916;-79
2022/07/31 12:00:22;;;;;;;;;;;;;;;21.03;100.00;-25658.88;5073382;28;19917;-78
2022/07/31 12:02:48;;;;;;;;;;;;;;;20.97;100.00;-25657.16;5072182;28;19934;-78
2022/07/31 12:05:13;;;;;;;;;;;;;;;20.98;100.00;-25657.44;5074094;28;19925;-81
2022/07/31 12:07:40;;;;;;;;;;;;;;;20.99;100.00;-25657.75;5072166;28;19916;-80
2022/07/31 12:10:06;;;;;;;;;;;;;;;20.99;100.00;-25657.75;5071457;28;19913;-80
2022/07/31 12:12:34;;;;;;;;;;;;;;;21.05;100.00;-25659.47;5072855;28;19924;-81
2022/07/31 12:14:59;;;;;;;;;;;;;;;21.36;100.00;-25668.09;5072909;28;19991;-80
2022/07/31 12:17:25;;;;;;;;;;;;;;;21.56;100.00;-25673.72;5072173;28;20407;-80
2022/07/31 12:19:50;;;;;;;;;;;;;;;21.65;100.00;-25676.28;5073347;28;20365;-78
2022/07/31 12:22:16;;;;;;;;;;;;;;;22.05;100.00;-25687.50;5072593;28;20473;-79
2022/07/31 12:24:42;;;;;;;;;;;;;;;22.38;100.00;-25696.56;5106145;28;20391;-79
2022/07/31 12:27:07;;;;;;;;;;;;;;;22.73;100.00;-25706.31;5073512;28;19925;-79
2022/07/31 12:29:39;;;;;;;;;;;;;;;22.77;100.00;-23376.00;5073845;28;20029;-79